aviador You're here:

KSAC Decoded Metar

SACRAMENTO in CA, USA
Report Time2018-05-21 17:53:00
UTC Time2018-05-21 18:24:00
Flight Rules vfr VFR
WindVRB at 04 kt
Visibility9999 m
Phenomena:N/A
Clouds:N/A
Expected CloudBase > 3,200 ft AGL from Temp-Dew spread
CeilingNone
Temp20°C (ISA +5)
Dew Point12°C (60% RH)
AAT19.2°C
QNH1010 hPa
Density Alt919 ft
Elevation36 ft
Report Wrong Elevation
Raw Report
KSAC 211753Z VRB04KT 10SM CLR 20/12 A2983 RMK AO2 SLP101 T02000122
10200 20100 58003=

Extra information for KSAC:More info

Metar Taf Metar & Taf Last 4 Metars F.Rules Stats Wind Profile Meteogram Temp Stats Airport Information Weather charts Add Link Nearby VenuesMetar ALERT Operation Metar Decoded Social comments

AIRNAV info for KSAC